Time;durP1;ratioP1;P1;durP2;ratioP2;P2;SDS_P1;SDS_P2;PMS_P1;PMS_P2;Temp;Humidity;BMP_temperature;BMP_pressure;BME280_temperature;BME280_humidity;BME280_pressure;Samples;Min_cycle;Max_cycle;Signal;HPM_P1;HPM_P2
2023/05/19 00:01:27;;;;;;;0.10;0.10;;;;;;;;;;4955608;28;20406;-81
2023/05/19 00:03:57;;;;;;;0.10;0.10;;;;;;;;;;4955678;28;20090;-81
2023/05/19 00:06:24;;;;;;;0.10;0.10;;;;;;;;;;4958329;28;20087;-81
2023/05/19 00:08:56;;;;;;;0.10;0.10;;;;;;;;;;4959163;28;20047;-80
2023/05/19 00:11:22;;;;;;;0.13;0.13;;;;;;;;;;4933742;29;20034;-80
2023/05/19 00:13:49;;;;;;;0.15;0.15;;;;;;;;;;4949960;28;20024;-79
2023/05/19 00:16:15;;;;;;;0.10;0.10;;;;;;;;;;4961719;28;20027;-81
2023/05/19 00:18:42;;;;;;;0.13;0.13;;;;;;;;;;4940284;28;20023;-80
2023/05/19 00:21:07;;;;;;;0.20;0.20;;;;;;;;;;4939993;29;20028;-81
2023/05/19 00:23:33;;;;;;;0.10;0.10;;;;;;;;;;4959037;28;20051;-80
2023/05/19 00:25:58;;;;;;;0.17;0.17;;;;;;;;;;4962189;28;20484;-82
2023/05/19 00:28:23;;;;;;;0.10;0.10;;;;;;;;;;4964060;28;20110;-81
2023/05/19 00:30:50;;;;;;;0.10;0.10;;;;;;;;;;4955471;28;20067;-81
2023/05/19 00:33:15;;;;;;;0.20;0.20;;;;;;;;;;4960446;28;20035;-81
2023/05/19 00:35:40;;;;;;;0.17;0.17;;;;;;;;;;4956972;28;20037;-81
2023/05/19 00:38:06;;;;;;;0.17;0.17;;;;;;;;;;4960035;28;20019;-81
2023/05/19 00:40:34;;;;;;;0.10;0.10;;;;;;;;;;4939555;29;20038;-80
2023/05/19 00:43:00;;;;;;;0.10;0.10;;;;;;;;;;4965688;28;20052;-80
2023/05/19 00:45:25;;;;;;;0.10;0.10;;;;;;;;;;4958777;28;20710;-80
2023/05/19 00:47:50;;;;;;;0.10;0.10;;;;;;;;;;4961128;28;20550;-81
2023/05/19 00:50:16;;;;;;;0.10;0.10;;;;;;;;;;4956927;28;20023;-81
2023/05/19 00:52:41;;;;;;;0.10;0.10;;;;;;;;;;4962716;28;20069;-81
2023/05/19 00:55:07;;;;;;;0.20;0.20;;;;;;;;;;4964764;28;20037;-81
2023/05/19 00:57:33;;;;;;;0.10;0.10;;;;;;;;;;4953713;28;20025;-79
2023/05/19 00:59:59;;;;;;;0.10;0.10;;;;;;;;;;4943574;28;20454;-80
2023/05/19 01:02:24;;;;;;;0.20;0.20;;;;;;;;;;4934807;29;20038;-81
2023/05/19 01:04:50;;;;;;;0.15;0.15;;;;;;;;;;4927217;28;20030;-79
2023/05/19 01:07:17;;;;;;;0.10;0.10;;;;;;;;;;4953833;28;20102;-80
2023/05/19 01:09:43;;;;;;;0.20;0.20;;;;;;;;;;4950115;28;20031;-80
2023/05/19 01:12:09;;;;;;;0.10;0.10;;;;;;;;;;4947752;28;20037;-79
2023/05/19 01:14:34;;;;;;;0.10;0.10;;;;;;;;;;4950207;28;20046;-81
2023/05/19 01:17:27;;;;;;;0.10;0.10;;;;;;;;;;4954025;28;20067;-80
2023/05/19 01:20:05;;;;;;;0.10;0.10;;;;;;;;;;4956314;28;20066;-81
2023/05/19 01:22:55;;;;;;;0.10;0.10;;;;;;;;;;4940161;28;20020;-81
2023/05/19 01:25:58;;;;;;;0.10;0.10;;;;;;;;;;4964233;28;20034;-80
2023/05/19 01:28:23;;;;;;;;;;;;;;;;;;4958820;28;20023;-80
2023/05/19 01:30:53;;;;;;;0.10;0.10;;;;;;;;;;4964231;28;19976;-80
2023/05/19 01:33:20;;;;;;;0.10;0.10;;;;;;;;;;4940174;29;20023;-79
2023/05/19 01:35:46;;;;;;;0.10;0.10;;;;;;;;;;4952430;28;20027;-82
2023/05/19 01:38:15;;;;;;;0.10;0.10;;;;;;;;;;4940553;28;20402;-82
2023/05/19 01:40:42;;;;;;;0.20;0.20;;;;;;;;;;4958841;28;20047;-81
2023/05/19 01:43:11;;;;;;;0.10;0.10;;;;;;;;;;4950777;28;20026;-81
2023/05/19 01:45:37;;;;;;;0.10;0.10;;;;;;;;;;4966413;28;20026;-80
2023/05/19 01:48:03;;;;;;;0.13;0.13;;;;;;;;;;4950480;28;20087;-80
2023/05/19 01:50:29;;;;;;;0.10;0.10;;;;;;;;;;4968696;28;20038;-80
2023/05/19 01:52:55;;;;;;;0.20;0.20;;;;;;;;;;4961393;28;20039;-79
2023/05/19 01:55:22;;;;;;;0.20;0.20;;;;;;;;;;4958408;29;20054;-79
2023/05/19 01:58:10;;;;;;;0.10;0.10;;;;;;;;;;4970812;28;20091;-82
2023/05/19 02:00:50;;;;;;;0.10;0.10;;;;;;;;;;4950507;28;20034;-82
2023/05/19 02:03:19;;;;;;;0.10;0.10;;;;;;;;;;4959480;28;20023;-81
2023/05/19 02:05:58;;;;;;;0.20;0.20;;;;;;;;;;4946966;28;20049;-82
2023/05/19 02:08:32;;;;;;;0.10;0.10;;;;;;;;;;4950789;28;20067;-81
2023/05/19 02:11:23;;;;;;;0.10;0.10;;;;;;;;;;4938138;29;20030;-81
2023/05/19 02:13:52;;;;;;;0.10;0.10;;;;;;;;;;4939848;28;20035;-81
2023/05/19 02:16:20;;;;;;;0.15;0.15;;;;;;;;;;4964065;28;20144;-80
2023/05/19 02:18:46;;;;;;;0.13;0.13;;;;;;;;;;4936727;28;20031;-79
2023/05/19 02:21:12;;;;;;;0.20;0.20;;;;;;;;;;4971455;28;20027;-80
2023/05/19 02:23:40;;;;;;;0.10;0.10;;;;;;;;;;4948961;28;20042;-80
2023/05/19 02:26:07;;;;;;;0.20;0.20;;;;;;;;;;4941347;29;20027;-81
2023/05/19 02:28:33;;;;;;;0.17;0.17;;;;;;;;;;4936098;29;20023;-80
2023/05/19 02:30:58;;;;;;;0.10;0.10;;;;;;;;;;4961291;28;20041;-80
2023/05/19 02:33:24;;;;;;;0.15;0.15;;;;;;;;;;4948917;28;20179;-81
2023/05/19 02:35:50;;;;;;;0.10;0.10;;;;;;;;;;4964484;28;20050;-81
2023/05/19 02:38:15;;;;;;;0.10;0.10;;;;;;;;;;4973036;28;20027;-80
2023/05/19 02:40:40;;;;;;;0.10;0.10;;;;;;;;;;4986858;28;20026;-81
2023/05/19 02:43:06;;;;;;;0.10;0.10;;;;;;;;;;4989367;28;20087;-79
2023/05/19 02:45:32;;;;;;;0.20;0.20;;;;;;;;;;4965918;28;20042;-80
2023/05/19 02:47:58;;;;;;;0.10;0.10;;;;;;;;;;4969106;28;20039;-78
2023/05/19 02:50:23;;;;;;;0.13;0.13;;;;;;;;;;4971626;28;20037;-78
2023/05/19 02:52:48;;;;;;;0.10;0.10;;;;;;;;;;4971972;28;20024;-79
2023/05/19 02:55:15;;;;;;;0.10;0.10;;;;;;;;;;4974481;28;20151;-80
2023/05/19 02:57:41;;;;;;;0.10;0.10;;;;;;;;;;4965558;28;20042;-80
2023/05/19 03:00:07;;;;;;;0.10;0.10;;;;;;;;;;4973269;28;20019;-80
2023/05/19 03:02:32;;;;;;;0.10;0.10;;;;;;;;;;4964843;28;20091;-80
2023/05/19 03:05:00;;;;;;;0.10;0.10;;;;;;;;;;4960650;28;20086;-80
2023/05/19 03:07:25;;;;;;;0.10;0.10;;;;;;;;;;4961319;28;20062;-79
2023/05/19 03:09:51;;;;;;;0.13;0.13;;;;;;;;;;4974230;28;20362;-80
2023/05/19 03:12:17;;;;;;;0.20;0.20;;;;;;;;;;4977361;28;20030;-80
2023/05/19 03:14:42;;;;;;;0.10;0.10;;;;;;;;;;4959953;28;20031;-80
2023/05/19 03:17:08;;;;;;;0.20;0.20;;;;;;;;;;4965261;28;20033;-81
2023/05/19 03:19:34;;;;;;;0.17;0.17;;;;;;;;;;4962626;28;20078;-81
2023/05/19 03:21:59;;;;;;;0.10;0.10;;;;;;;;;;4937576;29;20031;-81
2023/05/19 03:24:25;;;;;;;0.20;0.20;;;;;;;;;;4964283;28;20035;-79
2023/05/19 03:26:50;;;;;;;0.17;0.17;;;;;;;;;;4972605;28;20539;-80
2023/05/19 03:29:16;;;;;;;0.15;0.15;;;;;;;;;;4967579;28;20573;-81
2023/05/19 03:31:41;;;;;;;0.10;0.10;;;;;;;;;;4959484;28;20160;-81
2023/05/19 03:34:07;;;;;;;0.40;0.40;;;;;;;;;;4948227;28;20027;-80
2023/05/19 03:36:38;;;;;;;0.10;0.10;;;;;;;;;;4960677;28;20031;-81
2023/05/19 03:39:03;;;;;;;0.20;0.20;;;;;;;;;;4942074;29;20031;-80
2023/05/19 03:41:28;;;;;;;0.10;0.10;;;;;;;;;;4961270;28;20028;-81
2023/05/19 03:43:54;;;;;;;0.10;0.10;;;;;;;;;;4963549;28;20045;-80
2023/05/19 03:46:19;;;;;;;0.20;0.20;;;;;;;;;;4958595;28;20059;-80
2023/05/19 03:48:44;;;;;;;0.13;0.13;;;;;;;;;;4959459;28;20038;-80
2023/05/19 03:51:11;;;;;;;0.20;0.20;;;;;;;;;;4971198;28;20059;-81
2023/05/19 03:53:36;;;;;;;0.10;0.10;;;;;;;;;;4940899;28;20059;-80
2023/05/19 03:56:02;;;;;;;0.10;0.10;;;;;;;;;;4940840;28;20027;-81
2023/05/19 03:58:29;;;;;;;0.10;0.10;;;;;;;;;;4975965;28;20026;-82
2023/05/19 04:00:54;;;;;;;0.15;0.15;;;;;;;;;;4970157;28;20503;-82
2023/05/19 04:03:20;;;;;;;0.10;0.10;;;;;;;;;;4956479;28;20042;-81
2023/05/19 04:05:45;;;;;;;0.10;0.10;;;;;;;;;;4951082;28;20102;-81
2023/05/19 04:08:10;;;;;;;0.20;0.20;;;;;;;;;;4954298;28;20042;-80
2023/05/19 04:10:36;;;;;;;0.20;0.20;;;;;;;;;;4973722;28;20014;-81
2023/05/19 04:13:01;;;;;;;0.10;0.10;;;;;;;;;;4977419;28;20110;-82
2023/05/19 04:15:26;;;;;;;0.10;0.10;;;;;;;;;;4952048;28;20539;-81
2023/05/19 04:17:52;;;;;;;0.10;0.10;;;;;;;;;;4965579;28;20061;-80
2023/05/19 04:20:17;;;;;;;0.10;0.10;;;;;;;;;;4974076;28;20082;-80
2023/05/19 04:22:42;;;;;;;0.10;0.10;;;;;;;;;;4963255;28;20080;-79
2023/05/19 04:25:08;;;;;;;0.20;0.20;;;;;;;;;;4974838;28;20130;-78
2023/05/19 04:27:37;;;;;;;0.20;0.20;;;;;;;;;;4963157;28;20061;-80
2023/05/19 04:30:04;;;;;;;0.10;0.10;;;;;;;;;;4963113;28;20398;-79
2023/05/19 04:32:29;;;;;;;0.17;0.17;;;;;;;;;;4961581;28;20031;-82
2023/05/19 04:34:57;;;;;;;0.13;0.13;;;;;;;;;;4970833;28;20069;-80
2023/05/19 04:37:24;;;;;;;0.20;0.20;;;;;;;;;;4975625;28;20019;-81
2023/05/19 04:39:51;;;;;;;0.10;0.10;;;;;;;;;;4961908;28;20058;-80
2023/05/19 04:42:18;;;;;;;0.10;0.10;;;;;;;;;;4939007;29;20038;-80
2023/05/19 04:44:48;;;;;;;0.10;0.10;;;;;;;;;;4968563;28;20106;-81
2023/05/19 04:47:14;;;;;;;0.10;0.10;;;;;;;;;;4973503;28;20042;-80
2023/05/19 04:49:39;;;;;;;0.20;0.20;;;;;;;;;;4969580;28;20074;-81
2023/05/19 04:52:09;;;;;;;0.20;0.20;;;;;;;;;;4935189;28;20042;-80
2023/05/19 04:54:36;;;;;;;0.40;0.40;;;;;;;;;;4974620;28;20038;-80
2023/05/19 04:57:02;;;;;;;0.20;0.20;;;;;;;;;;4962663;28;20022;-80
2023/05/19 04:59:28;;;;;;;0.13;0.13;;;;;;;;;;4948890;29;20026;-81
2023/05/19 05:01:54;;;;;;;0.20;0.20;;;;;;;;;;4959649;28;20117;-81
2023/05/19 05:04:20;;;;;;;0.20;0.20;;;;;;;;;;4951676;29;20027;-80
2023/05/19 05:06:47;;;;;;;0.15;0.15;;;;;;;;;;4976271;28;20022;-81
2023/05/19 05:09:14;;;;;;;0.17;0.17;;;;;;;;;;4954514;29;20487;-81
2023/05/19 05:11:40;;;;;;;0.20;0.20;;;;;;;;;;4965312;28;20046;-81
2023/05/19 05:14:05;;;;;;;0.10;0.10;;;;;;;;;;4959806;28;20113;-80
2023/05/19 05:16:32;;;;;;;0.20;0.20;;;;;;;;;;4967129;28;20085;-80
2023/05/19 05:18:57;;;;;;;0.20;0.20;;;;;;;;;;4974364;28;20023;-80
2023/05/19 05:21:23;;;;;;;0.15;0.15;;;;;;;;;;4964514;28;20038;-81
2023/05/19 05:23:50;;;;;;;0.20;0.20;;;;;;;;;;4959814;28;20102;-80
2023/05/19 05:26:20;;;;;;;0.20;0.20;;;;;;;;;;4957583;28;20494;-81
2023/05/19 05:28:45;;;;;;;0.10;0.10;;;;;;;;;;4959110;28;20055;-80
2023/05/19 05:31:11;;;;;;;0.10;0.10;;;;;;;;;;4957069;28;20022;-81
2023/05/19 05:33:37;;;;;;;0.20;0.20;;;;;;;;;;4955030;28;20027;-82
2023/05/19 05:36:03;;;;;;;0.10;0.10;;;;;;;;;;4935495;29;20031;-80
2023/05/19 05:38:29;;;;;;;0.13;0.13;;;;;;;;;;4966537;28;20027;-81
2023/05/19 05:40:54;;;;;;;0.13;0.13;;;;;;;;;;4954497;28;20167;-80
2023/05/19 05:43:20;;;;;;;0.20;0.20;;;;;;;;;;4937452;29;20672;-80
2023/05/19 05:45:45;;;;;;;0.10;0.10;;;;;;;;;;4960715;28;20031;-81
2023/05/19 05:48:11;;;;;;;0.20;0.20;;;;;;;;;;4954858;28;20038;-81
2023/05/19 05:50:37;;;;;;;0.15;0.15;;;;;;;;;;4969954;28;20050;-80
2023/05/19 05:53:03;;;;;;;0.10;0.10;;;;;;;;;;4937810;28;20417;-81
2023/05/19 05:55:28;;;;;;;0.10;0.10;;;;;;;;;;4946311;28;20485;-81
2023/05/19 05:57:55;;;;;;;0.20;0.20;;;;;;;;;;4951671;28;20031;-81
2023/05/19 06:00:21;;;;;;;0.10;0.10;;;;;;;;;;4955263;28;20051;-81
2023/05/19 06:02:49;;;;;;;0.15;0.15;;;;;;;;;;4949948;28;20023;-81
2023/05/19 06:05:15;;;;;;;0.10;0.10;;;;;;;;;;4961505;28;20449;-81
2023/05/19 06:07:40;;;;;;;0.20;0.20;;;;;;;;;;4941959;29;20028;-81
2023/05/19 06:10:07;;;;;;;0.10;0.10;;;;;;;;;;4961872;28;20027;-81
2023/05/19 06:12:33;;;;;;;0.10;0.10;;;;;;;;;;4949316;28;20082;-81
2023/05/19 06:14:58;;;;;;;0.20;0.20;;;;;;;;;;4950914;29;20027;-81
2023/05/19 06:17:24;;;;;;;0.20;0.20;;;;;;;;;;4973555;28;20528;-81
2023/05/19 06:19:49;;;;;;;0.10;0.10;;;;;;;;;;4960079;28;20478;-82
2023/05/19 06:22:14;;;;;;;0.20;0.20;;;;;;;;;;4961817;28;20068;-81
2023/05/19 06:24:40;;;;;;;0.10;0.10;;;;;;;;;;4943624;29;20030;-81
2023/05/19 06:27:05;;;;;;;0.10;0.10;;;;;;;;;;4963033;28;20030;-80
2023/05/19 06:29:30;;;;;;;0.20;0.20;;;;;;;;;;4978212;28;20482;-81
2023/05/19 06:31:56;;;;;;;0.30;0.30;;;;;;;;;;4957947;28;20031;-81
2023/05/19 06:34:21;;;;;;;0.30;0.30;;;;;;;;;;4965482;28;20034;-81
2023/05/19 06:36:46;;;;;;;0.20;0.20;;;;;;;;;;4958925;28;20023;-81
2023/05/19 06:39:12;;;;;;;0.30;0.30;;;;;;;;;;4966507;28;20046;-81
2023/05/19 06:41:37;;;;;;;0.17;0.17;;;;;;;;;;4943256;29;20027;-81
2023/05/19 06:44:03;;;;;;;0.22;0.22;;;;;;;;;;4967383;28;20033;-80
2023/05/19 06:46:28;;;;;;;0.30;0.30;;;;;;;;;;4958420;28;20038;-81
2023/05/19 06:48:54;;;;;;;0.20;0.20;;;;;;;;;;4970082;28;20023;-80
2023/05/19 06:51:21;;;;;;;0.13;0.13;;;;;;;;;;4963977;28;20031;-81
2023/05/19 06:53:47;;;;;;;0.10;0.10;;;;;;;;;;4980751;28;20030;-79
2023/05/19 06:56:14;;;;;;;0.10;0.10;;;;;;;;;;4959600;29;20389;-80
2023/05/19 06:58:39;;;;;;;0.10;0.10;;;;;;;;;;4943997;29;20026;-79
2023/05/19 07:01:05;;;;;;;0.00;0.00;;;;;;;;;;4968637;28;20051;-81
2023/05/19 07:03:30;;;;;;;0.10;0.10;;;;;;;;;;4964956;28;20054;-81
2023/05/19 07:05:55;;;;;;;0.10;0.10;;;;;;;;;;4948236;28;20039;-80
2023/05/19 07:08:21;;;;;;;0.17;0.17;;;;;;;;;;4982564;28;20409;-80
2023/05/19 07:10:46;;;;;;;0.10;0.10;;;;;;;;;;4945304;28;20028;-81
2023/05/19 07:13:11;;;;;;;0.10;0.10;;;;;;;;;;4957913;28;20225;-81
2023/05/19 07:15:37;;;;;;;0.17;0.17;;;;;;;;;;4971741;28;20054;-81
2023/05/19 07:18:02;;;;;;;0.10;0.10;;;;;;;;;;4944910;29;20487;-80
2023/05/19 07:20:27;;;;;;;0.10;0.10;;;;;;;;;;4953384;29;20208;-80
2023/05/19 07:22:53;;;;;;;0.20;0.20;;;;;;;;;;4979009;28;20029;-81
2023/05/19 07:25:18;;;;;;;0.20;0.20;;;;;;;;;;4963126;28;20035;-79
2023/05/19 07:27:44;;;;;;;0.10;0.10;;;;;;;;;;4964531;28;20099;-79
2023/05/19 07:30:10;;;;;;;0.10;0.10;;;;;;;;;;4967960;28;20038;-79
2023/05/19 07:32:36;;;;;;;1.55;0.82;;;;;;;;;;4961133;28;20038;-81
2023/05/19 07:35:01;;;;;;;0.10;0.10;;;;;;;;;;4954709;28;20059;-80
2023/05/19 07:37:26;;;;;;;0.20;0.20;;;;;;;;;;4957750;28;20023;-80
2023/05/19 07:39:52;;;;;;;0.10;0.10;;;;;;;;;;4948255;28;20028;-80
2023/05/19 07:42:17;;;;;;;0.13;0.13;;;;;;;;;;4983051;28;20050;-80
2023/05/19 07:44:43;;;;;;;0.28;0.28;;;;;;;;;;4990639;28;20015;-82
2023/05/19 07:47:08;;;;;;;0.10;0.10;;;;;;;;;;4962476;28;20058;-81
2023/05/19 07:49:33;;;;;;;0.10;0.10;;;;;;;;;;4962446;28;20549;-82
2023/05/19 07:51:59;;;;;;;0.10;0.10;;;;;;;;;;4959151;28;20072;-81
2023/05/19 07:54:24;;;;;;;7.00;0.40;;;;;;;;;;4935502;29;20035;-80
2023/05/19 07:56:49;;;;;;;0.10;0.10;;;;;;;;;;4954377;28;20035;-80
2023/05/19 07:59:15;;;;;;;0.10;0.10;;;;;;;;;;4950665;29;20023;-81
2023/05/19 08:01:40;;;;;;;0.10;0.10;;;;;;;;;;4953074;28;20019;-79
2023/05/19 08:04:06;;;;;;;0.22;0.22;;;;;;;;;;4944275;29;20118;-80
2023/05/19 08:06:31;;;;;;;0.20;0.20;;;;;;;;;;4959387;28;20023;-81
2023/05/19 08:08:57;;;;;;;0.10;0.10;;;;;;;;;;4954057;29;20159;-80
2023/05/19 08:11:22;;;;;;;0.10;0.10;;;;;;;;;;4958499;28;20385;-81
2023/05/19 08:13:48;;;;;;;0.20;0.20;;;;;;;;;;4964766;28;20572;-80
2023/05/19 08:16:16;;;;;;;0.10;0.10;;;;;;;;;;4947177;28;20115;-81
2023/05/19 08:18:42;;;;;;;0.10;0.10;;;;;;;;;;4964131;28;20026;-81
2023/05/19 08:21:07;;;;;;;0.10;0.10;;;;;;;;;;4942435;28;20032;-81
2023/05/19 08:23:33;;;;;;;0.10;0.10;;;;;;;;;;4947070;28;20038;-81
2023/05/19 08:25:59;;;;;;;0.10;0.10;;;;;;;;;;4957314;28;20031;-81
2023/05/19 08:28:24;;;;;;;0.00;0.00;;;;;;;;;;4963642;28;20023;-79
2023/05/19 08:30:51;;;;;;;0.10;0.10;;;;;;;;;;4964152;28;20039;-80
2023/05/19 08:33:19;;;;;;;0.10;0.10;;;;;;;;;;4955851;28;20027;-80
2023/05/19 08:35:45;;;;;;;0.10;0.10;;;;;;;;;;4958418;28;20047;-80
2023/05/19 08:38:10;;;;;;;0.10;0.10;;;;;;;;;;4967767;28;20035;-80
2023/05/19 08:40:40;;;;;;;0.17;0.17;;;;;;;;;;4957456;28;20501;-80
2023/05/19 08:43:05;;;;;;;0.10;0.10;;;;;;;;;;4968945;28;20065;-81
2023/05/19 08:45:33;;;;;;;0.10;0.10;;;;;;;;;;4954269;28;20019;-81
2023/05/19 08:47:58;;;;;;;0.05;0.05;;;;;;;;;;4970405;28;20034;-81
2023/05/19 08:50:29;;;;;;;0.25;0.25;;;;;;;;;;4957318;28;20023;-81
2023/05/19 08:53:06;;;;;;;0.10;0.10;;;;;;;;;;4953938;28;20034;-81
2023/05/19 08:55:32;;;;;;;0.10;0.10;;;;;;;;;;4949366;28;20050;-81
2023/05/19 08:57:59;;;;;;;0.10;0.10;;;;;;;;;;4953582;28;20027;-81
2023/05/19 09:00:25;;;;;;;0.10;0.10;;;;;;;;;;4941606;29;20019;-80
2023/05/19 09:02:51;;;;;;;0.10;0.10;;;;;;;;;;4936956;29;20042;-82
2023/05/19 09:05:17;;;;;;;0.10;0.10;;;;;;;;;;4952427;29;20042;-80
2023/05/19 09:07:44;;;;;;;0.10;0.10;;;;;;;;;;4953762;29;20031;-81
2023/05/19 09:10:13;;;;;;;0.17;0.17;;;;;;;;;;4941063;28;20094;-81
2023/05/19 09:12:40;;;;;;;0.15;0.15;;;;;;;;;;4952972;28;20453;-79
2023/05/19 09:15:07;;;;;;;0.20;0.20;;;;;;;;;;4937648;29;20058;-81
2023/05/19 09:17:34;;;;;;;0.10;0.10;;;;;;;;;;4937199;29;20086;-81
2023/05/19 09:20:06;;;;;;;0.10;0.10;;;;;;;;;;4955027;28;20055;-79
2023/05/19 09:22:34;;;;;;;;;;;;;;;;;;4942026;29;20023;-81
2023/05/19 09:25:00;;;;;;;0.20;0.20;;;;;;;;;;4950741;28;20345;-84
2023/05/19 09:27:25;;;;;;;0.20;0.20;;;;;;;;;;4966086;28;20051;-82
2023/05/19 09:30:06;;;;;;;0.20;0.20;;;;;;;;;;4951638;29;20035;-85
2023/05/19 09:32:34;;;;;;;0.10;0.10;;;;;;;;;;4955855;28;20034;-84
2023/05/19 09:35:02;;;;;;;0.10;0.10;;;;;;;;;;4949315;28;20027;-84
2023/05/19 09:37:29;;;;;;;0.10;0.10;;;;;;;;;;4942437;29;20031;-84
2023/05/19 09:39:55;;;;;;;0.10;0.10;;;;;;;;;;4934104;29;20062;-85
2023/05/19 09:42:25;;;;;;;0.30;0.25;;;;;;;;;;4942080;29;20024;-84
2023/05/19 09:45:00;;;;;;;0.13;0.13;;;;;;;;;;4936838;29;20042;-83
2023/05/19 09:47:27;;;;;;;0.10;0.10;;;;;;;;;;4946430;29;20895;-84
2023/05/19 09:49:56;;;;;;;0.10;0.10;;;;;;;;;;4937681;29;20031;-85
2023/05/19 09:52:26;;;;;;;0.10;0.10;;;;;;;;;;4921525;29;20516;-84
2023/05/19 09:54:53;;;;;;;0.10;0.10;;;;;;;;;;4938340;29;20397;-83
2023/05/19 09:57:28;;;;;;;0.10;0.10;;;;;;;;;;4956012;28;20027;-84
2023/05/19 09:59:55;;;;;;;0.10;0.10;;;;;;;;;;4921942;29;20098;-85
2023/05/19 10:02:24;;;;;;;0.10;0.10;;;;;;;;;;4937532;29;20031;-85
2023/05/19 10:04:51;;;;;;;0.10;0.10;;;;;;;;;;4936388;29;20479;-84
2023/05/19 10:07:18;;;;;;;0.10;0.10;;;;;;;;;;4944289;28;20039;-84
2023/05/19 10:09:47;;;;;;;0.10;0.10;;;;;;;;;;4938169;29;20098;-84
2023/05/19 10:12:13;;;;;;;0.10;0.10;;;;;;;;;;4955596;28;20078;-84
2023/05/19 10:14:39;;;;;;;0.10;0.10;;;;;;;;;;4950734;28;20018;-84
2023/05/19 10:17:06;;;;;;;0.10;0.10;;;;;;;;;;4948516;29;20028;-84
2023/05/19 10:19:33;;;;;;;0.00;0.00;;;;;;;;;;4939165;29;20024;-84
2023/05/19 10:21:59;;;;;;;0.08;0.08;;;;;;;;;;4938132;28;20374;-83
2023/05/19 10:24:26;;;;;;;0.10;0.10;;;;;;;;;;4955232;28;20071;-82
2023/05/19 10:27:06;;;;;;;0.10;0.10;;;;;;;;;;4958151;28;20034;-86
2023/05/19 10:29:38;;;;;;;0.10;0.10;;;;;;;;;;4960100;28;20073;-86
2023/05/19 10:32:14;;;;;;;0.10;0.10;;;;;;;;;;4958290;28;20031;-86
2023/05/19 10:35:00;;;;;;;0.10;0.10;;;;;;;;;;4960558;29;20077;-85
2023/05/19 10:37:33;;;;;;;0.10;0.10;;;;;;;;;;4940819;29;20037;-86
2023/05/19 10:43:57;;;;;;;0.10;0.10;;;;;;;;;;4961547;28;20037;-86
2023/05/19 10:46:37;;;;;;;0.20;0.20;;;;;;;;;;4953504;28;20293;-86
2023/05/19 10:49:03;;;;;;;0.10;0.10;;;;;;;;;;4941794;29;20098;-85
2023/05/19 10:51:32;;;;;;;0.13;0.13;;;;;;;;;;4945209;28;20074;-85
2023/05/19 10:54:01;;;;;;;0.00;0.00;;;;;;;;;;4941406;29;20481;-85
2023/05/19 10:56:35;;;;;;;0.00;0.00;;;;;;;;;;4938860;28;20054;-81
2023/05/19 10:59:03;;;;;;;0.00;0.00;;;;;;;;;;4938959;28;20031;-81
2023/05/19 11:01:32;;;;;;;0.10;0.10;;;;;;;;;;4961831;28;20029;-84
2023/05/19 11:04:05;;;;;;;0.20;0.20;;;;;;;;;;4946730;29;20039;-83
2023/05/19 11:06:32;;;;;;;0.00;0.00;;;;;;;;;;4946150;28;20031;-84
2023/05/19 11:09:01;;;;;;;0.20;0.20;;;;;;;;;;4960133;28;20062;-85
2023/05/19 11:11:45;;;;;;;0.10;0.10;;;;;;;;;;4946721;28;20069;-86
2023/05/19 11:14:13;;;;;;;0.52;0.35;;;;;;;;;;4962761;28;20058;-84
2023/05/19 11:16:44;;;;;;;0.10;0.10;;;;;;;;;;4940818;29;20036;-86
2023/05/19 11:19:25;;;;;;;0.10;0.10;;;;;;;;;;4939006;28;20023;-85
2023/05/19 11:21:54;;;;;;;0.10;0.10;;;;;;;;;;4948378;28;20130;-86
2023/05/19 11:24:38;;;;;;;0.10;0.10;;;;;;;;;;4939988;28;20090;-84
2023/05/19 11:27:29;;;;;;;0.13;0.13;;;;;;;;;;4957800;23;20779;-86
2023/05/19 11:30:08;;;;;;;0.10;0.10;;;;;;;;;;4907734;29;20032;-83
2023/05/19 11:32:51;;;;;;;0.10;0.10;;;;;;;;;;4901227;29;20118;-85
2023/05/19 11:35:19;;;;;;;0.10;0.10;;;;;;;;;;4885084;29;20044;-87
2023/05/19 11:37:56;;;;;;;0.38;0.30;;;;;;;;;;4905449;29;20149;-85
2023/05/19 11:40:31;;;;;;;0.10;0.10;;;;;;;;;;4921594;29;20483;-83
2023/05/19 11:42:57;;;;;;;0.10;0.10;;;;;;;;;;4907473;29;20101;-85
2023/05/19 11:45:33;;;;;;;0.10;0.10;;;;;;;;;;4899200;29;20059;-85
2023/05/19 11:48:12;;;;;;;0.10;0.10;;;;;;;;;;4910852;29;20527;-81
2023/05/19 11:50:40;;;;;;;0.32;0.25;;;;;;;;;;4896911;29;20044;-80
2023/05/19 11:53:05;;;;;;;0.00;0.00;;;;;;;;;;4915355;29;20088;-81
2023/05/19 11:55:31;;;;;;;0.10;0.10;;;;;;;;;;4927317;29;20032;-80
2023/05/19 11:58:01;;;;;;;0.10;0.10;;;;;;;;;;4932670;29;20036;-80
2023/05/19 12:00:29;;;;;;;0.10;0.10;;;;;;;;;;4922037;29;20048;-82
2023/05/19 12:02:55;;;;;;;0.10;0.10;;;;;;;;;;4915341;29;20027;-80
2023/05/19 12:05:22;;;;;;;0.08;0.08;;;;;;;;;;4921448;29;20113;-80
2023/05/19 12:07:51;;;;;;;0.43;0.25;;;;;;;;;;4943009;29;20039;-80
2023/05/19 12:10:27;;;;;;;0.10;0.10;;;;;;;;;;4923864;29;20035;-82
2023/05/19 12:12:53;;;;;;;0.10;0.10;;;;;;;;;;4907621;29;20031;-82
2023/05/19 12:15:23;;;;;;;0.10;0.10;;;;;;;;;;4918531;29;20055;-82
2023/05/19 12:18:02;;;;;;;0.03;0.03;;;;;;;;;;4924968;29;20038;-84
2023/05/19 12:20:31;;;;;;;0.00;0.00;;;;;;;;;;4923243;29;20391;-82
2023/05/19 12:22:58;;;;;;;0.10;0.10;;;;;;;;;;4916100;29;20024;-83
2023/05/19 12:25:24;;;;;;;3.03;0.73;;;;;;;;;;4929408;29;20028;-82
2023/05/19 12:27:51;;;;;;;0.10;0.10;;;;;;;;;;4927441;29;20074;-81
2023/05/19 12:30:17;;;;;;;0.10;0.10;;;;;;;;;;4930218;29;20032;-82
2023/05/19 12:32:44;;;;;;;0.00;0.00;;;;;;;;;;4907143;29;20160;-83
2023/05/19 12:35:10;;;;;;;0.00;0.00;;;;;;;;;;4902560;29;20040;-82
2023/05/19 12:37:39;;;;;;;0.00;0.00;;;;;;;;;;4921688;29;20031;-83
2023/05/19 12:40:05;;;;;;;0.10;0.10;;;;;;;;;;4923778;29;20127;-82
2023/05/19 12:42:31;;;;;;;0.10;0.10;;;;;;;;;;4917594;29;20112;-82
2023/05/19 12:44:58;;;;;;;0.00;0.00;;;;;;;;;;4923139;29;20483;-81
2023/05/19 12:47:34;;;;;;;0.10;0.10;;;;;;;;;;4941413;29;20028;-82
2023/05/19 12:50:03;;;;;;;0.10;0.10;;;;;;;;;;4938474;29;20036;-81
2023/05/19 12:52:34;;;;;;;0.10;0.10;;;;;;;;;;4937192;29;20028;-81
2023/05/19 12:55:06;;;;;;;0.00;0.00;;;;;;;;;;4928336;29;20027;-82
2023/05/19 12:57:42;;;;;;;0.00;0.00;;;;;;;;;;4925023;29;20032;-81
2023/05/19 13:00:16;;;;;;;0.10;0.10;;;;;;;;;;4915536;29;20032;-80
2023/05/19 13:02:59;;;;;;;0.10;0.10;;;;;;;;;;4914005;29;20034;-80
2023/05/19 13:05:29;;;;;;;0.05;0.05;;;;;;;;;;4923618;29;20035;-82
2023/05/19 13:07:58;;;;;;;0.20;0.20;;;;;;;;;;4916557;29;20035;-83
2023/05/19 13:10:27;;;;;;;0.20;0.20;;;;;;;;;;4933756;29;20034;-84
2023/05/19 13:12:56;;;;;;;0.10;0.10;;;;;;;;;;4912014;29;20032;-81
2023/05/19 13:15:23;;;;;;;0.10;0.10;;;;;;;;;;4914973;29;20044;-80
2023/05/19 13:17:50;;;;;;;0.10;0.10;;;;;;;;;;4898824;29;20020;-83
2023/05/19 13:20:15;;;;;;;0.17;0.17;;;;;;;;;;4919338;29;20036;-82
2023/05/19 13:22:41;;;;;;;0.10;0.10;;;;;;;;;;4921065;29;20039;-80
2023/05/19 13:25:07;;;;;;;0.10;0.10;;;;;;;;;;4918095;29;20038;-81
2023/05/19 13:27:34;;;;;;;0.00;0.00;;;;;;;;;;4913690;29;20036;-82
2023/05/19 13:29:59;;;;;;;0.10;0.10;;;;;;;;;;4905241;29;20517;-81
2023/05/19 13:32:25;;;;;;;0.10;0.10;;;;;;;;;;4917039;29;20119;-81
2023/05/19 13:34:50;;;;;;;0.10;0.10;;;;;;;;;;4922378;29;20040;-81
2023/05/19 13:37:16;;;;;;;0.10;0.10;;;;;;;;;;4916462;29;20058;-82
2023/05/19 13:39:41;;;;;;;0.10;0.10;;;;;;;;;;4918853;29;20024;-83
2023/05/19 13:42:06;;;;;;;0.10;0.10;;;;;;;;;;4925661;29;20036;-81
2023/05/19 13:44:32;;;;;;;0.05;0.05;;;;;;;;;;4901259;29;20040;-80
2023/05/19 13:46:57;;;;;;;0.10;0.10;;;;;;;;;;4921067;29;20048;-80
2023/05/19 13:49:23;;;;;;;0.00;0.00;;;;;;;;;;4917836;29;20036;-82
2023/05/19 13:51:49;;;;;;;0.10;0.10;;;;;;;;;;4900100;29;20028;-82
2023/05/19 13:54:14;;;;;;;0.10;0.10;;;;;;;;;;4921438;29;20379;-81
2023/05/19 13:56:39;;;;;;;0.40;0.20;;;;;;;;;;4913002;29;20232;-82
2023/05/19 13:59:05;;;;;;;0.10;0.10;;;;;;;;;;4920197;29;20059;-82
2023/05/19 14:01:30;;;;;;;0.13;0.13;;;;;;;;;;4927380;29;20023;-82
2023/05/19 14:03:55;;;;;;;0.10;0.10;;;;;;;;;;4925108;29;20063;-82
2023/05/19 14:06:21;;;;;;;0.10;0.10;;;;;;;;;;4905110;29;20422;-80
2023/05/19 14:08:49;;;;;;;0.28;0.28;;;;;;;;;;4927170;29;20039;-80
2023/05/19 14:11:21;;;;;;;0.10;0.10;;;;;;;;;;4923505;29;20059;-82
2023/05/19 14:13:50;;;;;;;0.10;0.10;;;;;;;;;;4916701;29;20035;-81
2023/05/19 14:16:21;;;;;;;0.10;0.10;;;;;;;;;;4906714;29;20040;-81
2023/05/19 14:18:47;;;;;;;0.10;0.10;;;;;;;;;;4921098;29;20361;-81
2023/05/19 14:21:14;;;;;;;0.10;0.10;;;;;;;;;;4918282;29;20032;-81
2023/05/19 14:23:39;;;;;;;0.10;0.10;;;;;;;;;;4914949;29;20034;-79
2023/05/19 14:26:04;;;;;;;0.10;0.10;;;;;;;;;;4928888;29;20047;-78
2023/05/19 14:28:29;;;;;;;0.10;0.10;;;;;;;;;;4909895;29;20044;-83
2023/05/19 14:30:55;;;;;;;0.10;0.10;;;;;;;;;;4902298;29;20052;-80
2023/05/19 14:33:20;;;;;;;0.10;0.10;;;;;;;;;;4903948;29;20031;-82
2023/05/19 14:35:46;;;;;;;0.10;0.10;;;;;;;;;;4903778;29;20032;-82
2023/05/19 14:38:12;;;;;;;0.10;0.10;;;;;;;;;;4928388;29;20109;-82
2023/05/19 14:40:40;;;;;;;0.52;0.52;;;;;;;;;;4908182;29;20681;-81
2023/05/19 14:43:05;;;;;;;0.15;0.15;;;;;;;;;;4916789;29;20039;-80
2023/05/19 14:45:31;;;;;;;0.25;0.17;;;;;;;;;;4917427;29;20047;-82
2023/05/19 14:47:56;;;;;;;0.10;0.10;;;;;;;;;;4919084;29;20036;-82
2023/05/19 14:50:21;;;;;;;0.20;0.20;;;;;;;;;;4915181;29;20110;-81